createdAt,value
2022-11-17T06:05:32.740Z,4.36
2022-11-17T06:10:53.898Z,4.33
2022-11-17T06:16:20.702Z,4.34
2022-11-17T06:22:09.772Z,4.30
2022-11-17T06:27:22.918Z,4.28
2022-11-17T06:32:45.468Z,4.33
2022-11-17T06:38:07.072Z,4.34
2022-11-17T06:43:28.194Z,4.33
2022-11-17T06:48:49.379Z,4.30
2022-11-17T06:54:12.340Z,4.29
2022-11-17T06:59:33.732Z,4.29
2022-11-17T07:04:54.443Z,4.37
2022-11-17T07:10:15.164Z,4.41
2022-11-17T07:15:35.931Z,4.38
2022-11-17T07:21:02.205Z,4.36
2022-11-17T07:26:23.137Z,4.37
2022-11-17T07:31:43.882Z,4.36
2022-11-17T07:37:04.688Z,4.37
2022-11-17T07:42:25.408Z,4.37
2022-11-17T07:47:54.229Z,4.40
2022-11-17T07:53:15.669Z,4.37
2022-11-17T07:58:38.130Z,4.42
2022-11-17T08:03:59.645Z,4.41
2022-11-17T08:09:20.546Z,4.38
2022-11-17T08:14:41.401Z,4.38
2022-11-17T08:20:03.721Z,4.36
2022-11-17T08:25:26.940Z,4.43
2022-11-17T08:30:48.294Z,4.55
2022-11-17T08:36:10.219Z,4.35
2022-11-17T08:41:31.800Z,4.38
2022-11-17T08:46:53.105Z,4.39
2022-11-17T08:52:13.883Z,4.42
2022-11-17T08:57:35.029Z,4.48
2022-11-17T09:02:55.791Z,4.45
2022-11-17T09:08:44.005Z,4.48
2022-11-17T09:13:57.930Z,4.53
2022-11-17T09:19:19.553Z,4.58
2022-11-17T09:24:40.760Z,4.59
2022-11-17T09:30:01.749Z,4.60
2022-11-17T09:35:22.808Z,4.58
2022-11-17T09:40:43.983Z,4.58
2022-11-17T09:46:13.623Z,4.56
2022-11-17T09:51:37.577Z,4.51
2022-11-17T09:56:59.364Z,4.56
2022-11-17T10:02:20.435Z,4.57
2022-11-17T10:07:48.165Z,4.57
2022-11-17T10:13:32.783Z,4.63
2022-11-17T10:18:53.892Z,4.70
2022-11-17T10:24:35.363Z,4.75
2022-11-17T10:30:00.235Z,4.63
2022-11-17T10:35:23.038Z,4.68
2022-11-17T10:40:44.030Z,4.73
2022-11-17T10:46:16.604Z,4.76
2022-11-17T10:51:37.792Z,4.91
2022-11-17T10:57:01.358Z,4.97
2022-11-17T11:02:35.420Z,4.96
2022-11-17T11:08:18.189Z,4.90
2022-11-17T11:13:52.193Z,4.98
2022-11-17T11:19:15.648Z,4.93
2022-11-17T11:24:53.916Z,4.89
2022-11-17T11:30:19.479Z,4.94
2022-11-17T11:36:05.049Z,4.95
2022-11-17T11:41:31.756Z,4.92
2022-11-17T11:46:56.934Z,4.87
2022-11-17T11:52:21.715Z,4.85
2022-11-17T11:57:53.363Z,4.84
2022-11-17T12:03:25.406Z,4.40
2022-11-17T12:08:59.355Z,3.98
2022-11-17T12:14:24.220Z,3.85
2022-11-17T12:19:55.493Z,3.74
2022-11-17T12:25:46.835Z,3.64
2022-11-17T12:31:43.203Z,3.55
2022-11-17T12:37:15.268Z,3.48
2022-11-17T12:42:37.001Z,3.43
2022-11-17T12:48:26.495Z,3.40
2022-11-17T12:53:52.293Z,3.32
2022-11-17T12:59:43.485Z,3.26
2022-11-17T13:05:21.891Z,3.19
2022-11-17T13:10:43.031Z,3.13
2022-11-17T13:16:04.790Z,3.07
2022-11-17T13:21:25.621Z,3.01
2022-11-17T13:26:59.267Z,2.99
2022-11-17T13:32:24.012Z,2.99
2022-11-17T13:37:45.139Z,2.97
2022-11-17T13:43:11.015Z,2.95
2022-11-17T13:48:41.582Z,2.95
2022-11-17T13:54:13.695Z,2.94
2022-11-17T13:59:37.915Z,2.89
2022-11-17T14:05:10.915Z,2.84
2022-11-17T14:10:36.206Z,2.78
2022-11-17T14:15:59.768Z,2.75
2022-11-17T14:21:20.703Z,2.71
2022-11-17T14:26:44.747Z,2.65
2022-11-17T14:32:05.623Z,2.62
2022-11-17T14:37:29.223Z,2.60
2022-11-17T14:42:50.252Z,2.60
2022-11-17T14:48:16.158Z,2.82
2022-11-17T14:53:42.023Z,2.71
2022-11-17T14:59:03.344Z,2.66
2022-11-17T15:10:06.446Z,3.09
2022-11-17T15:15:28.304Z,2.88
2022-11-17T15:20:59.704Z,2.76
2022-11-17T15:26:23.794Z,2.70
2022-11-17T15:31:44.804Z,2.85
2022-11-17T15:37:05.862Z,3.19
2022-11-17T15:42:26.677Z,2.96
2022-11-17T15:47:47.557Z,2.82
2022-11-17T15:53:08.423Z,2.75
2022-11-17T15:58:29.384Z,2.70
2022-11-17T16:03:51.041Z,2.65
2022-11-17T16:09:13.132Z,2.65
2022-11-17T16:14:34.177Z,2.63
2022-11-17T16:19:55.228Z,2.62
2022-11-17T16:25:16.285Z,2.62
2022-11-17T16:30:37.432Z,2.61
2022-11-17T16:36:04.916Z,2.57
2022-11-17T16:41:37.209Z,2.55
2022-11-17T16:46:58.293Z,2.52
2022-11-17T16:52:19.472Z,2.51
2022-11-17T16:57:40.463Z,2.50
2022-11-17T17:03:02.153Z,2.50
2022-11-17T17:08:23.224Z,2.50
2022-11-17T17:13:43.925Z,2.48
2022-11-17T17:19:07.108Z,2.49
2022-11-17T17:24:28.390Z,2.49
2022-11-17T17:29:49.375Z,2.43
2022-11-17T17:35:10.002Z,2.43
2022-11-17T17:40:30.854Z,2.45
2022-11-17T17:45:53.803Z,2.43
2022-11-17T17:51:20.376Z,2.39
2022-11-17T17:56:41.255Z,2.36
2022-11-17T18:02:02.566Z,2.34
2022-11-17T18:07:23.146Z,2.32
2022-11-17T18:12:44.023Z,2.28
2022-11-17T18:18:04.680Z,2.23
2022-11-17T18:23:28.875Z,2.22
2022-11-17T18:28:52.773Z,2.21
2022-11-17T18:34:20.646Z,2.17
2022-11-17T18:39:41.573Z,2.15
2022-11-17T18:45:02.482Z,2.88
2022-11-17T18:50:23.280Z,2.96
2022-11-17T18:55:44.074Z,2.53
2022-11-17T19:01:16.369Z,2.33
2022-11-17T19:06:37.431Z,2.18
2022-11-17T19:11:58.282Z,2.11
2022-11-17T19:17:19.271Z,2.05
2022-11-17T19:22:39.948Z,2.03
2022-11-17T19:28:00.619Z,2.01
2022-11-17T19:33:21.331Z,1.94
2022-11-17T19:38:43.171Z,1.92
2022-11-17T19:44:06.853Z,1.87
2022-11-17T19:49:27.568Z,1.81
2022-11-17T19:54:48.277Z,1.79
2022-11-17T20:00:09.999Z,1.77
2022-11-17T20:05:50.644Z,1.76
2022-11-17T20:11:20.496Z,1.74
2022-11-17T20:16:41.417Z,1.72
2022-11-17T20:22:02.243Z,1.67
2022-11-17T20:27:22.922Z,1.65
2022-11-17T20:32:43.593Z,1.66
2022-11-17T20:38:04.535Z,1.63
2022-11-17T20:43:26.621Z,1.57
2022-11-17T20:48:48.266Z,1.54
2022-11-17T20:54:09.291Z,1.54
2022-11-17T20:59:30.006Z,1.53
2022-11-17T21:04:50.761Z,1.47
2022-11-17T21:10:11.540Z,1.44
2022-11-17T21:15:32.348Z,1.39
2022-11-17T21:20:55.992Z,1.39
2022-11-17T21:26:17.120Z,1.39
2022-11-17T21:31:38.268Z,1.37
2022-11-17T21:36:59.066Z,1.34
2022-11-17T21:42:19.949Z,1.31
2022-11-17T21:47:40.828Z,1.31
2022-11-17T21:53:01.496Z,1.31
2022-11-17T21:58:22.644Z,1.31
2022-11-17T22:03:43.734Z,1.28
2022-11-17T22:09:04.772Z,1.27
2022-11-17T22:14:25.800Z,1.24
2022-11-17T22:19:46.791Z,1.23
2022-11-17T22:25:37.429Z,1.19
2022-11-17T22:30:51.382Z,1.10
2022-11-17T22:36:13.863Z,1.03
2022-11-17T22:41:35.022Z,1.02
2022-11-17T22:46:55.954Z,0.97
